sensor_id;sensor_type;location;lat;lon;timestamp;temperature;humidity
43087;DHT22;28708;52.224;6.924;2023-03-01T00:01:55;0.80;99.90
43087;DHT22;28708;52.224;6.924;2023-03-01T00:04:21;0.80;99.90
43087;DHT22;28708;52.224;6.924;2023-03-01T00:06:47;0.90;99.90
43087;DHT22;28708;52.224;6.924;2023-03-01T00:09:16;0.80;99.90
43087;DHT22;28708;52.224;6.924;2023-03-01T00:11:42;0.70;99.90
43087;DHT22;28708;52.224;6.924;2023-03-01T00:14:07;0.60;99.90
43087;DHT22;28708;52.224;6.924;2023-03-01T00:16:41;0.60;99.90
43087;DHT22;28708;52.224;6.924;2023-03-01T00:19:12;0.70;99.90
43087;DHT22;28708;52.224;6.924;2023-03-01T00:21:37;0.80;99.90
43087;DHT22;28708;52.224;6.924;2023-03-01T00:24:03;0.80;99.90
43087;DHT22;28708;52.224;6.924;2023-03-01T00:26:30;0.80;99.90
43087;DHT22;28708;52.224;6.924;2023-03-01T00:28:57;0.80;99.90
43087;DHT22;28708;52.224;6.924;2023-03-01T00:31:25;0.80;99.90
43087;DHT22;28708;52.224;6.924;2023-03-01T00:33:56;0.60;99.90
43087;DHT22;28708;52.224;6.924;2023-03-01T00:36:24;0.60;99.90
43087;DHT22;28708;52.224;6.924;2023-03-01T00:38:50;0.70;99.90
43087;DHT22;28708;52.224;6.924;2023-03-01T00:41:17;0.60;99.90
43087;DHT22;28708;52.224;6.924;2023-03-01T00:43:44;0.50;99.90
43087;DHT22;28708;52.224;6.924;2023-03-01T00:46:15;0.50;99.90
43087;DHT22;28708;52.224;6.924;2023-03-01T00:48:42;0.70;99.90
43087;DHT22;28708;52.224;6.924;2023-03-01T00:51:13;0.70;99.90
43087;DHT22;28708;52.224;6.924;2023-03-01T00:53:40;0.70;99.90
43087;DHT22;28708;52.224;6.924;2023-03-01T00:56:07;0.70;99.90
43087;DHT22;28708;52.224;6.924;2023-03-01T00:58:33;0.70;99.90
43087;DHT22;28708;52.224;6.924;2023-03-01T01:01:00;0.60;99.90
43087;DHT22;28708;52.224;6.924;2023-03-01T01:03:27;0.60;99.90
43087;DHT22;28708;52.224;6.924;2023-03-01T01:05:53;0.70;99.90
43087;DHT22;28708;52.224;6.924;2023-03-01T01:08:20;0.70;99.90
43087;DHT22;28708;52.224;6.924;2023-03-01T01:10:46;0.70;99.90
43087;DHT22;28708;52.224;6.924;2023-03-01T01:13:13;0.70;99.90
43087;DHT22;28708;52.224;6.924;2023-03-01T01:15:39;0.60;99.90
43087;DHT22;28708;52.224;6.924;2023-03-01T01:18:05;0.60;99.90
43087;DHT22;28708;52.224;6.924;2023-03-01T01:20:30;0.60;99.90
43087;DHT22;28708;52.224;6.924;2023-03-01T01:22:57;0.60;99.90
43087;DHT22;28708;52.224;6.924;2023-03-01T01:25:23;0.60;99.90
43087;DHT22;28708;52.224;6.924;2023-03-01T01:27:50;0.60;99.90
43087;DHT22;28708;52.224;6.924;2023-03-01T01:30:16;0.50;99.90
43087;DHT22;28708;52.224;6.924;2023-03-01T01:32:42;0.50;99.90
43087;DHT22;28708;52.224;6.924;2023-03-01T01:35:08;0.50;99.90
43087;DHT22;28708;52.224;6.924;2023-03-01T01:37:33;0.50;99.90
43087;DHT22;28708;52.224;6.924;2023-03-01T01:40:00;0.40;99.90
43087;DHT22;28708;52.224;6.924;2023-03-01T01:42:27;0.40;99.90
43087;DHT22;28708;52.224;6.924;2023-03-01T01:45:31;0.50;99.90
43087;DHT22;28708;52.224;6.924;2023-03-01T01:48:03;0.50;99.90
43087;DHT22;28708;52.224;6.924;2023-03-01T01:50:31;0.40;99.90
43087;DHT22;28708;52.224;6.924;2023-03-01T01:53:15;0.40;99.90
43087;DHT22;28708;52.224;6.924;2023-03-01T01:55:45;0.40;99.90
43087;DHT22;28708;52.224;6.924;2023-03-01T01:58:16;0.40;99.90
43087;DHT22;28708;52.224;6.924;2023-03-01T02:00:42;0.30;99.90
43087;DHT22;28708;52.224;6.924;2023-03-01T02:03:14;0.30;99.90
43087;DHT22;28708;52.224;6.924;2023-03-01T02:05:55;0.20;99.90
43087;DHT22;28708;52.224;6.924;2023-03-01T02:08:25;0.20;99.90
43087;DHT22;28708;52.224;6.924;2023-03-01T02:10:52;0.20;99.90
43087;DHT22;28708;52.224;6.924;2023-03-01T02:13:20;0.10;99.90
43087;DHT22;28708;52.224;6.924;2023-03-01T02:15:46;0.20;99.90
43087;DHT22;28708;52.224;6.924;2023-03-01T02:18:15;0.10;99.90
43087;DHT22;28708;52.224;6.924;2023-03-01T02:23:28;0.10;99.90
43087;DHT22;28708;52.224;6.924;2023-03-01T02:26:20;0.20;99.90
43087;DHT22;28708;52.224;6.924;2023-03-01T02:28:50;0.20;99.90
43087;DHT22;28708;52.224;6.924;2023-03-01T02:31:19;0.10;99.90
43087;DHT22;28708;52.224;6.924;2023-03-01T02:34:04;0.10;99.90
43087;DHT22;28708;52.224;6.924;2023-03-01T02:36:39;0.10;99.90
43087;DHT22;28708;52.224;6.924;2023-03-01T02:39:07;0.10;99.90
43087;DHT22;28708;52.224;6.924;2023-03-01T02:41:37;0.00;99.90
43087;DHT22;28708;52.224;6.924;2023-03-01T02:44:04;-0.10;99.90
43087;DHT22;28708;52.224;6.924;2023-03-01T02:46:30;-0.10;99.90
43087;DHT22;28708;52.224;6.924;2023-03-01T02:48:57;0.00;99.90
43087;DHT22;28708;52.224;6.924;2023-03-01T02:54:08;0.00;99.90
43087;DHT22;28708;52.224;6.924;2023-03-01T02:56:36;-0.10;99.90
43087;DHT22;28708;52.224;6.924;2023-03-01T02:59:02;-0.20;99.90
43087;DHT22;28708;52.224;6.924;2023-03-01T03:01:29;-0.30;99.90
43087;DHT22;28708;52.224;6.924;2023-03-01T03:04:08;-0.40;99.90
43087;DHT22;28708;52.224;6.924;2023-03-01T03:06:35;-0.40;99.90
43087;DHT22;28708;52.224;6.924;2023-03-01T03:09:02;-0.40;99.90
43087;DHT22;28708;52.224;6.924;2023-03-01T03:11:29;-0.40;99.90
43087;DHT22;28708;52.224;6.924;2023-03-01T03:13:56;-0.40;99.90
43087;DHT22;28708;52.224;6.924;2023-03-01T03:16:23;-0.40;99.90
43087;DHT22;28708;52.224;6.924;2023-03-01T03:18:50;-0.40;99.90
43087;DHT22;28708;52.224;6.924;2023-03-01T03:21:16;-0.30;99.90
43087;DHT22;28708;52.224;6.924;2023-03-01T03:23:42;-0.40;99.90
43087;DHT22;28708;52.224;6.924;2023-03-01T03:26:08;-0.30;99.90
43087;DHT22;28708;52.224;6.924;2023-03-01T03:28:35;-0.40;99.90
43087;DHT22;28708;52.224;6.924;2023-03-01T03:31:01;-0.40;99.90
43087;DHT22;28708;52.224;6.924;2023-03-01T03:33:30;-0.50;99.90
43087;DHT22;28708;52.224;6.924;2023-03-01T03:35:56;-0.50;99.90
43087;DHT22;28708;52.224;6.924;2023-03-01T03:38:22;-0.40;99.90
43087;DHT22;28708;52.224;6.924;2023-03-01T03:40:59;-0.50;99.90
43087;DHT22;28708;52.224;6.924;2023-03-01T03:43:29;-0.60;99.90
43087;DHT22;28708;52.224;6.924;2023-03-01T03:45:55;-0.40;99.90
43087;DHT22;28708;52.224;6.924;2023-03-01T03:48:23;-0.50;99.90
43087;DHT22;28708;52.224;6.924;2023-03-01T03:50:51;-0.50;99.90
43087;DHT22;28708;52.224;6.924;2023-03-01T03:53:18;-0.50;99.90
43087;DHT22;28708;52.224;6.924;2023-03-01T03:55:44;-0.50;99.90
43087;DHT22;28708;52.224;6.924;2023-03-01T03:58:11;-0.60;99.90
43087;DHT22;28708;52.224;6.924;2023-03-01T04:00:42;-0.70;99.90
43087;DHT22;28708;52.224;6.924;2023-03-01T04:03:09;-0.60;99.90
43087;DHT22;28708;52.224;6.924;2023-03-01T04:05:35;-0.60;99.90
43087;DHT22;28708;52.224;6.924;2023-03-01T04:08:02;-0.50;99.90
43087;DHT22;28708;52.224;6.924;2023-03-01T04:10:30;-0.60;99.90
43087;DHT22;28708;52.224;6.924;2023-03-01T04:12:56;-0.60;99.90
43087;DHT22;28708;52.224;6.924;2023-03-01T04:15:23;-0.60;99.90
43087;DHT22;28708;52.224;6.924;2023-03-01T04:17:50;-0.50;99.90
43087;DHT22;28708;52.224;6.924;2023-03-01T04:20:20;-0.60;99.90
43087;DHT22;28708;52.224;6.924;2023-03-01T04:25:26;-0.60;99.90
43087;DHT22;28708;52.224;6.924;2023-03-01T04:27:51;-0.60;99.90
43087;DHT22;28708;52.224;6.924;2023-03-01T04:30:17;-0.60;99.90
43087;DHT22;28708;52.224;6.924;2023-03-01T04:32:43;-0.50;99.90
43087;DHT22;28708;52.224;6.924;2023-03-01T04:35:09;-0.50;99.90
43087;DHT22;28708;52.224;6.924;2023-03-01T04:37:35;-0.50;99.90
43087;DHT22;28708;52.224;6.924;2023-03-01T04:40:02;-0.40;99.90
43087;DHT22;28708;52.224;6.924;2023-03-01T04:42:37;-0.50;99.90
43087;DHT22;28708;52.224;6.924;2023-03-01T04:45:04;-0.70;99.90
43087;DHT22;28708;52.224;6.924;2023-03-01T04:47:39;-0.80;99.90
43087;DHT22;28708;52.224;6.924;2023-03-01T04:50:05;-0.90;99.90
43087;DHT22;28708;52.224;6.924;2023-03-01T04:52:31;-1.00;99.90
43087;DHT22;28708;52.224;6.924;2023-03-01T04:54:57;-1.00;99.90
43087;DHT22;28708;52.224;6.924;2023-03-01T04:57:22;-1.00;99.90
43087;DHT22;28708;52.224;6.924;2023-03-01T04:59:48;-0.90;99.90
43087;DHT22;28708;52.224;6.924;2023-03-01T05:02:13;-0.80;99.90
43087;DHT22;28708;52.224;6.924;2023-03-01T05:04:39;-0.80;99.90
43087;DHT22;28708;52.224;6.924;2023-03-01T05:07:05;-0.70;99.90
43087;DHT22;28708;52.224;6.924;2023-03-01T05:09:30;-0.60;99.90
43087;DHT22;28708;52.224;6.924;2023-03-01T05:11:56;-0.70;99.90
43087;DHT22;28708;52.224;6.924;2023-03-01T05:14:21;-0.80;99.90
43087;DHT22;28708;52.224;6.924;2023-03-01T05:16:48;-0.70;99.90
43087;DHT22;28708;52.224;6.924;2023-03-01T05:19:14;-0.90;99.90
43087;DHT22;28708;52.224;6.924;2023-03-01T05:21:48;-0.80;99.90
43087;DHT22;28708;52.224;6.924;2023-03-01T05:24:34;-0.90;99.90
43087;DHT22;28708;52.224;6.924;2023-03-01T05:27:00;-0.70;99.90
43087;DHT22;28708;52.224;6.924;2023-03-01T05:29:27;-0.70;99.90
43087;DHT22;28708;52.224;6.924;2023-03-01T05:31:58;-0.80;99.90
43087;DHT22;28708;52.224;6.924;2023-03-01T05:34:29;-1.00;99.90
43087;DHT22;28708;52.224;6.924;2023-03-01T05:36:56;-1.10;99.90
43087;DHT22;28708;52.224;6.924;2023-03-01T05:39:24;-1.10;99.90
43087;DHT22;28708;52.224;6.924;2023-03-01T05:41:59;-1.10;99.90
43087;DHT22;28708;52.224;6.924;2023-03-01T05:44:25;-1.10;99.90
43087;DHT22;28708;52.224;6.924;2023-03-01T05:46:51;-1.20;99.90
43087;DHT22;28708;52.224;6.924;2023-03-01T05:49:17;-1.20;99.90
43087;DHT22;28708;52.224;6.924;2023-03-01T05:51:47;-1.20;99.90
43087;DHT22;28708;52.224;6.924;2023-03-01T05:54:13;-1.30;99.90
43087;DHT22;28708;52.224;6.924;2023-03-01T05:56:39;-1.20;99.90
43087;DHT22;28708;52.224;6.924;2023-03-01T05:59:05;-1.20;99.90
43087;DHT22;28708;52.224;6.924;2023-03-01T06:01:32;-1.20;99.90
43087;DHT22;28708;52.224;6.924;2023-03-01T06:03:58;-1.20;99.90
43087;DHT22;28708;52.224;6.924;2023-03-01T06:06:24;-1.10;99.90
43087;DHT22;28708;52.224;6.924;2023-03-01T06:08:50;-1.10;99.90
43087;DHT22;28708;52.224;6.924;2023-03-01T06:11:16;-1.00;99.90
43087;DHT22;28708;52.224;6.924;2023-03-01T06:13:43;-1.00;99.90
43087;DHT22;28708;52.224;6.924;2023-03-01T06:16:09;-1.00;99.90
43087;DHT22;28708;52.224;6.924;2023-03-01T06:18:36;-1.00;99.90
43087;DHT22;28708;52.224;6.924;2023-03-01T06:21:02;-1.10;99.90
43087;DHT22;28708;52.224;6.924;2023-03-01T06:23:28;-1.10;99.90
43087;DHT22;28708;52.224;6.924;2023-03-01T06:25:53;-1.00;99.90
43087;DHT22;28708;52.224;6.924;2023-03-01T06:28:19;-1.10;99.90
43087;DHT22;28708;52.224;6.924;2023-03-01T06:30:45;-1.10;99.90
43087;DHT22;28708;52.224;6.924;2023-03-01T06:33:11;-1.10;99.90
43087;DHT22;28708;52.224;6.924;2023-03-01T06:35:37;-1.10;99.90
43087;DHT22;28708;52.224;6.924;2023-03-01T06:38:04;-1.10;99.90
43087;DHT22;28708;52.224;6.924;2023-03-01T06:40:30;-1.10;99.90
43087;DHT22;28708;52.224;6.924;2023-03-01T06:42:57;-1.10;99.90
43087;DHT22;28708;52.224;6.924;2023-03-01T06:45:22;-1.00;99.90
43087;DHT22;28708;52.224;6.924;2023-03-01T06:47:48;-1.10;99.90
43087;DHT22;28708;52.224;6.924;2023-03-01T06:50:15;-1.00;99.90
43087;DHT22;28708;52.224;6.924;2023-03-01T06:52:41;-1.10;99.90
43087;DHT22;28708;52.224;6.924;2023-03-01T06:55:07;-1.10;99.90
43087;DHT22;28708;52.224;6.924;2023-03-01T06:57:33;-1.00;99.90
43087;DHT22;28708;52.224;6.924;2023-03-01T06:59:58;-1.10;99.90
43087;DHT22;28708;52.224;6.924;2023-03-01T07:02:24;-1.10;99.90
43087;DHT22;28708;52.224;6.924;2023-03-01T07:04:50;-1.00;99.90
43087;DHT22;28708;52.224;6.924;2023-03-01T07:07:16;-1.00;99.90
43087;DHT22;28708;52.224;6.924;2023-03-01T07:09:46;-1.00;99.90
43087;DHT22;28708;52.224;6.924;2023-03-01T07:12:13;-0.90;99.90
43087;DHT22;28708;52.224;6.924;2023-03-01T07:14:39;-0.90;99.90
43087;DHT22;28708;52.224;6.924;2023-03-01T07:17:04;-0.80;99.90
43087;DHT22;28708;52.224;6.924;2023-03-01T07:19:30;-0.80;99.90
43087;DHT22;28708;52.224;6.924;2023-03-01T07:21:55;-0.70;99.90
43087;DHT22;28708;52.224;6.924;2023-03-01T07:24:22;-0.70;99.90
43087;DHT22;28708;52.224;6.924;2023-03-01T07:26:51;-0.70;99.90
43087;DHT22;28708;52.224;6.924;2023-03-01T07:29:18;-0.60;99.90
43087;DHT22;28708;52.224;6.924;2023-03-01T07:31:44;-0.50;99.90
43087;DHT22;28708;52.224;6.924;2023-03-01T07:34:09;-0.50;99.90
43087;DHT22;28708;52.224;6.924;2023-03-01T07:36:36;-0.50;99.90
43087;DHT22;28708;52.224;6.924;2023-03-01T07:39:02;-0.50;99.90
43087;DHT22;28708;52.224;6.924;2023-03-01T07:41:29;-0.40;99.90
43087;DHT22;28708;52.224;6.924;2023-03-01T07:43:54;-0.30;99.90
43087;DHT22;28708;52.224;6.924;2023-03-01T07:46:20;-0.30;99.90
43087;DHT22;28708;52.224;6.924;2023-03-01T07:48:46;-0.20;99.90
43087;DHT22;28708;52.224;6.924;2023-03-01T07:51:12;0.00;99.90
43087;DHT22;28708;52.224;6.924;2023-03-01T07:53:37;0.00;99.90
43087;DHT22;28708;52.224;6.924;2023-03-01T07:56:11;0.10;99.90
43087;DHT22;28708;52.224;6.924;2023-03-01T07:58:38;0.20;99.90
43087;DHT22;28708;52.224;6.924;2023-03-01T08:01:07;0.30;99.90
43087;DHT22;28708;52.224;6.924;2023-03-01T08:03:33;0.40;99.90
43087;DHT22;28708;52.224;6.924;2023-03-01T08:06:00;0.40;99.90
43087;DHT22;28708;52.224;6.924;2023-03-01T08:08:26;0.50;99.90
43087;DHT22;28708;52.224;6.924;2023-03-01T08:10:52;0.60;99.90
43087;DHT22;28708;52.224;6.924;2023-03-01T08:13:17;0.70;99.90
43087;DHT22;28708;52.224;6.924;2023-03-01T08:15:51;0.70;99.90
43087;DHT22;28708;52.224;6.924;2023-03-01T08:18:17;0.80;99.90
43087;DHT22;28708;52.224;6.924;2023-03-01T08:20:44;0.80;99.90
43087;DHT22;28708;52.224;6.924;2023-03-01T08:23:10;0.90;99.90
43087;DHT22;28708;52.224;6.924;2023-03-01T08:25:35;1.00;99.90
43087;DHT22;28708;52.224;6.924;2023-03-01T08:28:01;1.10;99.90
43087;DHT22;28708;52.224;6.924;2023-03-01T08:30:27;1.10;99.90
43087;DHT22;28708;52.224;6.924;2023-03-01T08:32:52;1.20;99.90
43087;DHT22;28708;52.224;6.924;2023-03-01T08:35:19;1.30;99.90
43087;DHT22;28708;52.224;6.924;2023-03-01T08:37:44;1.40;99.90
43087;DHT22;28708;52.224;6.924;2023-03-01T08:40:11;1.50;99.90
43087;DHT22;28708;52.224;6.924;2023-03-01T08:42:40;1.50;99.90
43087;DHT22;28708;52.224;6.924;2023-03-01T08:45:07;1.60;99.90
43087;DHT22;28708;52.224;6.924;2023-03-01T08:47:33;1.70;99.90
43087;DHT22;28708;52.224;6.924;2023-03-01T08:49:59;1.80;99.90
43087;DHT22;28708;52.224;6.924;2023-03-01T08:52:25;1.90;99.90
43087;DHT22;28708;52.224;6.924;2023-03-01T08:54:52;2.00;99.90
43087;DHT22;28708;52.224;6.924;2023-03-01T08:57:18;2.10;99.90
43087;DHT22;28708;52.224;6.924;2023-03-01T08:59:43;2.10;99.90
43087;DHT22;28708;52.224;6.924;2023-03-01T09:02:17;2.20;99.90
43087;DHT22;28708;52.224;6.924;2023-03-01T09:04:43;2.20;99.90
43087;DHT22;28708;52.224;6.924;2023-03-01T09:07:10;2.30;99.90
43087;DHT22;28708;52.224;6.924;2023-03-01T09:09:37;2.40;99.90
43087;DHT22;28708;52.224;6.924;2023-03-01T09:12:03;2.50;99.90
43087;DHT22;28708;52.224;6.924;2023-03-01T09:14:29;2.50;99.90
43087;DHT22;28708;52.224;6.924;2023-03-01T09:16:55;2.70;99.90
43087;DHT22;28708;52.224;6.924;2023-03-01T09:19:20;2.70;99.90
43087;DHT22;28708;52.224;6.924;2023-03-01T09:21:46;2.90;99.90
43087;DHT22;28708;52.224;6.924;2023-03-01T09:24:20;3.00;99.90
43087;DHT22;28708;52.224;6.924;2023-03-01T09:26:46;3.10;99.90
43087;DHT22;28708;52.224;6.924;2023-03-01T09:29:12;3.20;99.90
43087;DHT22;28708;52.224;6.924;2023-03-01T09:31:38;3.30;99.90
43087;DHT22;28708;52.224;6.924;2023-03-01T09:34:04;3.40;99.90
43087;DHT22;28708;52.224;6.924;2023-03-01T09:36:30;3.40;99.90
43087;DHT22;28708;52.224;6.924;2023-03-01T09:38:57;3.50;99.90
43087;DHT22;28708;52.224;6.924;2023-03-01T09:47:05;4.00;99.90
43087;DHT22;28708;52.224;6.924;2023-03-01T09:49:39;4.10;99.90
43087;DHT22;28708;52.224;6.924;2023-03-01T09:54:48;4.40;99.90
43087;DHT22;28708;52.224;6.924;2023-03-01T09:57:20;4.40;99.90
43087;DHT22;28708;52.224;6.924;2023-03-01T10:03:14;4.50;99.90
43087;DHT22;28708;52.224;6.924;2023-03-01T10:06:20;4.80;99.90
43087;DHT22;28708;52.224;6.924;2023-03-01T10:09:37;4.90;99.90
43087;DHT22;28708;52.224;6.924;2023-03-01T10:11:52;5.10;99.90
43087;DHT22;28708;52.224;6.924;2023-03-01T10:14:29;5.40;99.90
43087;DHT22;28708;52.224;6.924;2023-03-01T10:17:00;5.60;99.90
43087;DHT22;28708;52.224;6.924;2023-03-01T10:19:40;6.70;99.90
43087;DHT22;28708;52.224;6.924;2023-03-01T10:22:28;8.70;99.90
43087;DHT22;28708;52.224;6.924;2023-03-01T10:24:56;10.10;99.90
43087;DHT22;28708;52.224;6.924;2023-03-01T10:27:34;11.70;99.40
43087;DHT22;28708;52.224;6.924;2023-03-01T10:32:36;12.80;89.40
43087;DHT22;28708;52.224;6.924;2023-03-01T10:35:16;12.40;83.60
43087;DHT22;28708;52.224;6.924;2023-03-01T10:38:08;12.90;83.70
43087;DHT22;28708;52.224;6.924;2023-03-01T10:40:35;13.00;82.50
43087;DHT22;28708;52.224;6.924;2023-03-01T10:43:04;12.80;79.40
43087;DHT22;28708;52.224;6.924;2023-03-01T10:51:13;13.20;75.70
43087;DHT22;28708;52.224;6.924;2023-03-01T10:53:41;13.40;75.80
43087;DHT22;28708;52.224;6.924;2023-03-01T10:56:12;13.80;75.70
43087;DHT22;28708;52.224;6.924;2023-03-01T10:59:00;14.50;73.20
43087;DHT22;28708;52.224;6.924;2023-03-01T11:01:29;14.10;71.60
43087;DHT22;28708;52.224;6.924;2023-03-01T11:06:57;13.70;71.10
43087;DHT22;28708;52.224;6.924;2023-03-01T11:09:22;13.20;71.10
43087;DHT22;28708;52.224;6.924;2023-03-01T11:11:54;14.50;70.20
43087;DHT22;28708;52.224;6.924;2023-03-01T11:14:23;14.70;70.20
43087;DHT22;28708;52.224;6.924;2023-03-01T11:17:03;14.20;69.10
43087;DHT22;28708;52.224;6.924;2023-03-01T11:19:29;14.40;69.20
43087;DHT22;28708;52.224;6.924;2023-03-01T11:24:45;14.60;68.20
43087;DHT22;28708;52.224;6.924;2023-03-01T11:27:31;13.70;68.40
43087;DHT22;28708;52.224;6.924;2023-03-01T11:30:06;14.30;67.90
43087;DHT22;28708;52.224;6.924;2023-03-01T11:32:40;14.80;69.00
43087;DHT22;28708;52.224;6.924;2023-03-01T11:35:20;13.40;67.40
43087;DHT22;28708;52.224;6.924;2023-03-01T11:40:35;13.10;68.90
43087;DHT22;28708;52.224;6.924;2023-03-01T11:43:09;13.10;68.50
43087;DHT22;28708;52.224;6.924;2023-03-01T11:48:35;12.40;69.50
43087;DHT22;28708;52.224;6.924;2023-03-01T11:51:12;13.30;69.80
43087;DHT22;28708;52.224;6.924;2023-03-01T11:59:19;12.90;67.10
43087;DHT22;28708;52.224;6.924;2023-03-01T12:02:19;11.20;70.50
43087;DHT22;28708;52.224;6.924;2023-03-01T12:10:37;8.10;77.50
43087;DHT22;28708;52.224;6.924;2023-03-01T12:18:39;7.10;80.30
43087;DHT22;28708;52.224;6.924;2023-03-01T12:29:22;7.00;82.00
43087;DHT22;28708;52.224;6.924;2023-03-01T12:40:40;7.10;83.50
43087;DHT22;28708;52.224;6.924;2023-03-01T12:50:54;7.20;82.80
43087;DHT22;28708;52.224;6.924;2023-03-01T12:53:24;7.10;82.60
43087;DHT22;28708;52.224;6.924;2023-03-01T12:55:52;7.20;82.60
43087;DHT22;28708;52.224;6.924;2023-03-01T13:13:24;7.40;80.30
43087;DHT22;28708;52.224;6.924;2023-03-01T13:17:54;7.30;79.90
43087;DHT22;28708;52.224;6.924;2023-03-01T13:20:27;7.40;79.60
43087;DHT22;28708;52.224;6.924;2023-03-01T13:23:02;7.80;80.70
43087;DHT22;28708;52.224;6.924;2023-03-01T13:25:28;7.70;78.40
43087;DHT22;28708;52.224;6.924;2023-03-01T13:30:58;7.70;77.80
43087;DHT22;28708;52.224;6.924;2023-03-01T13:35:58;7.60;80.30
43087;DHT22;28708;52.224;6.924;2023-03-01T13:41:02;8.00;78.80
43087;DHT22;28708;52.224;6.924;2023-03-01T13:43:42;8.10;77.80
43087;DHT22;28708;52.224;6.924;2023-03-01T13:46:14;8.10;79.00
43087;DHT22;28708;52.224;6.924;2023-03-01T13:48:43;8.20;78.30
43087;DHT22;28708;52.224;6.924;2023-03-01T13:51:11;8.30;79.60
43087;DHT22;28708;52.224;6.924;2023-03-01T13:53:44;8.10;79.00
43087;DHT22;28708;52.224;6.924;2023-03-01T13:56:36;8.10;80.20
43087;DHT22;28708;52.224;6.924;2023-03-01T13:59:05;7.80;80.40
43087;DHT22;28708;52.224;6.924;2023-03-01T14:01:34;8.00;80.80
43087;DHT22;28708;52.224;6.924;2023-03-01T14:04:02;8.20;81.80
43087;DHT22;28708;52.224;6.924;2023-03-01T14:06:31;8.30;80.70
43087;DHT22;28708;52.224;6.924;2023-03-01T14:09:10;8.20;81.40
43087;DHT22;28708;52.224;6.924;2023-03-01T14:12:05;8.20;81.00
43087;DHT22;28708;52.224;6.924;2023-03-01T14:14:42;8.00;80.90
43087;DHT22;28708;52.224;6.924;2023-03-01T14:17:22;8.10;79.80
43087;DHT22;28708;52.224;6.924;2023-03-01T14:19:56;7.90;79.10
43087;DHT22;28708;52.224;6.924;2023-03-01T14:22:29;8.20;80.60
43087;DHT22;28708;52.224;6.924;2023-03-01T14:25:05;8.20;78.20
43087;DHT22;28708;52.224;6.924;2023-03-01T14:27:39;8.20;78.20
43087;DHT22;28708;52.224;6.924;2023-03-01T14:30:18;8.10;77.80
43087;DHT22;28708;52.224;6.924;2023-03-01T14:33:02;8.10;79.00
43087;DHT22;28708;52.224;6.924;2023-03-01T14:35:30;8.30;78.00
43087;DHT22;28708;52.224;6.924;2023-03-01T14:37:57;8.40;77.10
43087;DHT22;28708;52.224;6.924;2023-03-01T14:40:28;8.60;77.30
43087;DHT22;28708;52.224;6.924;2023-03-01T14:42:56;8.60;76.30
43087;DHT22;28708;52.224;6.924;2023-03-01T14:45:25;8.60;77.70
43087;DHT22;28708;52.224;6.924;2023-03-01T14:47:53;8.60;77.80
43087;DHT22;28708;52.224;6.924;2023-03-01T14:50:29;8.60;78.40
43087;DHT22;28708;52.224;6.924;2023-03-01T14:53:01;8.50;77.50
43087;DHT22;28708;52.224;6.924;2023-03-01T14:55:36;8.60;76.90
43087;DHT22;28708;52.224;6.924;2023-03-01T14:58:04;8.60;78.00
43087;DHT22;28708;52.224;6.924;2023-03-01T15:00:32;8.50;77.80
43087;DHT22;28708;52.224;6.924;2023-03-01T15:03:11;8.50;78.20
43087;DHT22;28708;52.224;6.924;2023-03-01T15:05:39;8.40;79.10
43087;DHT22;28708;52.224;6.924;2023-03-01T15:08:05;8.50;79.60
43087;DHT22;28708;52.224;6.924;2023-03-01T15:10:36;8.80;78.60
43087;DHT22;28708;52.224;6.924;2023-03-01T15:15:40;8.60;79.70
43087;DHT22;28708;52.224;6.924;2023-03-01T15:18:27;8.70;80.10
43087;DHT22;28708;52.224;6.924;2023-03-01T15:20:54;8.60;80.40
43087;DHT22;28708;52.224;6.924;2023-03-01T15:23:26;8.50;81.50
43087;DHT22;28708;52.224;6.924;2023-03-01T15:25:53;8.30;80.80
43087;DHT22;28708;52.224;6.924;2023-03-01T15:28:30;8.30;82.40
43087;DHT22;28708;52.224;6.924;2023-03-01T15:31:20;8.30;81.40
43087;DHT22;28708;52.224;6.924;2023-03-01T15:33:46;8.30;82.90
43087;DHT22;28708;52.224;6.924;2023-03-01T15:36:39;8.10;82.70
43087;DHT22;28708;52.224;6.924;2023-03-01T15:41:52;7.80;84.00
43087;DHT22;28708;52.224;6.924;2023-03-01T15:44:29;7.80;84.60
43087;DHT22;28708;52.224;6.924;2023-03-01T15:46:55;7.90;85.10
43087;DHT22;28708;52.224;6.924;2023-03-01T15:49:41;7.80;85.00
43087;DHT22;28708;52.224;6.924;2023-03-01T15:52:22;7.80;84.40
43087;DHT22;28708;52.224;6.924;2023-03-01T15:55:01;7.80;85.50
43087;DHT22;28708;52.224;6.924;2023-03-01T15:57:28;7.90;85.40
43087;DHT22;28708;52.224;6.924;2023-03-01T15:59:53;7.80;86.10
43087;DHT22;28708;52.224;6.924;2023-03-01T16:02:19;7.60;85.60
43087;DHT22;28708;52.224;6.924;2023-03-01T16:04:46;7.80;85.30
43087;DHT22;28708;52.224;6.924;2023-03-01T16:07:13;7.80;86.30
43087;DHT22;28708;52.224;6.924;2023-03-01T16:09:39;7.60;85.40
43087;DHT22;28708;52.224;6.924;2023-03-01T16:12:06;7.50;86.50
43087;DHT22;28708;52.224;6.924;2023-03-01T16:14:34;7.40;86.00
43087;DHT22;28708;52.224;6.924;2023-03-01T16:16:59;7.40;87.00
43087;DHT22;28708;52.224;6.924;2023-03-01T16:19:25;7.20;87.70
43087;DHT22;28708;52.224;6.924;2023-03-01T16:21:51;7.20;87.50
43087;DHT22;28708;52.224;6.924;2023-03-01T16:24:16;7.00;88.30
43087;DHT22;28708;52.224;6.924;2023-03-01T16:26:42;6.90;88.50
43087;DHT22;28708;52.224;6.924;2023-03-01T16:29:08;6.80;89.10
43087;DHT22;28708;52.224;6.924;2023-03-01T16:31:33;6.70;89.10
43087;DHT22;28708;52.224;6.924;2023-03-01T16:33:59;6.70;89.20
43087;DHT22;28708;52.224;6.924;2023-03-01T16:36:26;6.60;89.60
43087;DHT22;28708;52.224;6.924;2023-03-01T16:38:54;6.60;90.00
43087;DHT22;28708;52.224;6.924;2023-03-01T16:41:23;6.50;90.30
43087;DHT22;28708;52.224;6.924;2023-03-01T16:43:49;6.50;89.70
43087;DHT22;28708;52.224;6.924;2023-03-01T16:46:20;6.40;90.20
43087;DHT22;28708;52.224;6.924;2023-03-01T16:48:47;6.30;90.40
43087;DHT22;28708;52.224;6.924;2023-03-01T16:51:14;6.30;90.80
43087;DHT22;28708;52.224;6.924;2023-03-01T16:53:40;6.30;90.60
43087;DHT22;28708;52.224;6.924;2023-03-01T16:56:08;6.20;90.90
43087;DHT22;28708;52.224;6.924;2023-03-01T16:58:36;6.20;91.20
43087;DHT22;28708;52.224;6.924;2023-03-01T17:03:36;6.00;91.50
43087;DHT22;28708;52.224;6.924;2023-03-01T17:06:03;6.00;91.50
43087;DHT22;28708;52.224;6.924;2023-03-01T17:08:29;5.90;91.80
43087;DHT22;28708;52.224;6.924;2023-03-01T17:10:55;5.80;92.40
43087;DHT22;28708;52.224;6.924;2023-03-01T17:13:23;5.70;92.40
43087;DHT22;28708;52.224;6.924;2023-03-01T17:15:48;5.70;92.10
43087;DHT22;28708;52.224;6.924;2023-03-01T17:18:14;5.60;92.30
43087;DHT22;28708;52.224;6.924;2023-03-01T17:20:39;5.50;92.50
43087;DHT22;28708;52.224;6.924;2023-03-01T17:23:05;5.50;92.60
43087;DHT22;28708;52.224;6.924;2023-03-01T17:25:31;5.50;92.70
43087;DHT22;28708;52.224;6.924;2023-03-01T17:27:57;5.40;92.90
43087;DHT22;28708;52.224;6.924;2023-03-01T17:30:23;5.40;93.00
43087;DHT22;28708;52.224;6.924;2023-03-01T17:32:48;5.30;93.10
43087;DHT22;28708;52.224;6.924;2023-03-01T17:35:14;5.30;93.30
43087;DHT22;28708;52.224;6.924;2023-03-01T17:37:40;5.30;93.50
43087;DHT22;28708;52.224;6.924;2023-03-01T17:40:11;5.20;93.50
43087;DHT22;28708;52.224;6.924;2023-03-01T17:42:36;5.10;93.90
43087;DHT22;28708;52.224;6.924;2023-03-01T17:45:02;5.10;94.30
43087;DHT22;28708;52.224;6.924;2023-03-01T17:47:28;5.00;94.30